Time;durP1;ratioP1;P1;durP2;ratioP2;P2;SDS_P1;SDS_P2;PMS_P1;PMS_P2;Temp;Humidity;BMP_temperature;BMP_pressure;BME280_temperature;BME280_humidity;BME280_pressure;Samples;Min_cycle;Max_cycle;Signal;HPM_P1;HPM_P2
2023/04/03 00:01:59;;;;;;;4.43;2.03;;;;;;;4.22;77.73;101583.66;4971851;28;20212;-71
2023/04/03 00:04:26;;;;;;;2.00;1.50;;;;;;;4.33;77.06;101587.78;4966574;28;20271;-71
2023/04/03 00:06:52;;;;;;;4.23;1.97;;;;;;;4.38;76.26;101589.84;4963724;28;20292;-71
2023/04/03 00:09:19;;;;;;;2.90;1.53;;;;;;;4.39;75.59;101589.03;4968492;28;20209;-71
2023/04/03 00:11:45;;;;;;;1.90;1.20;;;;;;;4.51;74.98;101588.84;4966336;28;20233;-71
2023/04/03 00:14:11;;;;;;;2.17;1.70;;;;;;;4.49;74.47;101586.97;4964260;28;20221;-70
2023/04/03 00:16:38;;;;;;;2.17;1.43;;;;;;;4.49;74.27;101585.25;4959085;28;20654;-71
2023/04/03 00:19:05;;;;;;;2.80;1.60;;;;;;;4.49;73.85;101586.97;4966086;28;20697;-71
2023/04/03 00:21:31;;;;;;;1.90;1.37;;;;;;;4.49;73.71;101581.72;4967882;28;20504;-71
2023/04/03 00:23:57;;;;;;;2.17;1.60;;;;;;;4.60;73.41;101593.72;4962582;28;20222;-70
2023/04/03 00:26:24;;;;;;;3.67;1.43;;;;;;;4.58;73.30;101591.00;4962859;28;20221;-71
2023/04/03 00:28:50;;;;;;;2.90;1.70;;;;;;;4.58;73.85;101584.84;4963456;28;20202;-71
2023/04/03 00:31:17;;;;;;;2.00;1.50;;;;;;;4.59;73.23;101584.03;4966929;28;20674;-70
2023/04/03 00:33:43;;;;;;;2.07;1.40;;;;;;;4.56;73.75;101584.75;4963510;28;20237;-71
2023/04/03 00:36:11;;;;;;;2.43;1.40;;;;;;;4.56;73.82;101584.75;4961794;28;20732;-71
2023/04/03 00:38:38;;;;;;;2.33;1.40;;;;;;;4.61;72.77;101585.03;4957692;28;20225;-71
2023/04/03 00:41:08;;;;;;;2.33;1.27;;;;;;;4.56;73.20;101582.13;4964256;28;20201;-71
2023/04/03 00:43:34;;;;;;;2.33;1.37;;;;;;;4.55;73.53;101595.19;4962497;28;20765;-71
2023/04/03 00:46:00;;;;;;;2.83;1.50;;;;;;;4.54;73.54;101588.13;4956255;28;20233;-71
2023/04/03 00:48:34;;;;;;;2.20;1.40;;;;;;;4.52;73.57;101593.28;4955189;28;20264;-71
2023/04/03 00:51:02;;;;;;;3.13;1.30;;;;;;;4.47;73.24;101584.25;4963713;28;20209;-71
2023/04/03 00:53:35;;;;;;;3.20;1.20;;;;;;;4.52;73.58;101595.00;4955392;28;20743;-71
2023/04/03 00:56:05;;;;;;;2.30;1.70;;;;;;;4.58;72.95;101588.38;4962578;28;20225;-71
2023/04/03 00:58:36;;;;;;;2.87;1.40;;;;;;;4.54;73.25;101588.13;4963721;28;20202;-70
2023/04/03 01:01:08;;;;;;;1.93;1.43;;;;;;;4.55;73.42;101582.06;4964187;28;20230;-71
2023/04/03 01:03:34;;;;;;;2.90;1.40;;;;;;;4.61;73.22;101591.16;4962819;28;20664;-71
2023/04/03 01:06:01;;;;;;;2.43;1.30;;;;;;;4.62;72.74;101586.81;4962195;28;20203;-71
2023/04/03 01:08:28;;;;;;;1.60;1.30;;;;;;;4.67;72.09;101580.13;4966455;28;20198;-71
2023/04/03 01:10:55;;;;;;;2.03;1.20;;;;;;;4.62;72.62;101578.97;4954532;28;20199;-71
2023/04/03 01:13:28;;;;;;;2.27;1.30;;;;;;;4.62;73.56;101586.81;4963246;28;20217;-71
2023/04/03 01:15:55;;;;;;;1.43;1.33;;;;;;;4.52;74.24;101589.75;4963993;28;20330;-71
2023/04/03 01:18:24;;;;;;;2.43;1.40;;;;;;;4.44;74.84;101588.41;4969680;28;20681;-71
2023/04/03 01:21:32;;;;;;;3.07;1.70;;;;;;;4.54;74.11;101594.28;4969294;28;20202;-71
2023/04/03 01:24:27;;;;;;;2.13;1.30;;;;;;;4.61;73.23;101600.75;4924361;29;20218;-71
2023/04/03 01:26:53;;;;;;;1.97;1.30;;;;;;;4.57;73.81;101591.81;4929149;29;20199;-71
2023/04/03 01:29:20;;;;;;;1.97;1.20;;;;;;;4.60;73.11;101597.22;4955812;28;20623;-71
2023/04/03 01:31:53;;;;;;;2.93;1.57;;;;;;;4.59;73.19;101582.31;4965417;28;20201;-71
2023/04/03 01:34:20;;;;;;;2.30;1.30;;;;;;;4.65;73.56;101600.13;4968756;28;20228;-70
2023/04/03 01:36:47;;;;;;;1.83;1.30;;;;;;;4.69;73.65;101595.13;4965715;28;20233;-71
2023/04/03 01:39:14;;;;;;;2.50;1.30;;;;;;;4.66;73.66;101597.56;4979475;28;20689;-71
2023/04/03 01:41:40;;;;;;;1.57;1.20;;;;;;;4.72;73.60;101592.66;4966005;28;20717;-71
2023/04/03 01:44:06;;;;;;;3.80;1.40;;;;;;;4.69;73.89;101586.34;4965629;28;20225;-71
2023/04/03 01:46:33;;;;;;;1.87;1.40;;;;;;;4.64;74.12;101583.47;4964563;28;20197;-71
2023/04/03 01:49:00;;;;;;;3.63;1.20;;;;;;;4.61;74.17;101585.91;4962062;28;20258;-70
2023/04/03 01:51:27;;;;;;;3.07;1.33;;;;;;;4.55;74.82;101593.44;4968894;28;20568;-71
2023/04/03 01:53:53;;;;;;;2.63;1.40;;;;;;;4.57;74.18;101599.69;4969950;28;20223;-71
2023/04/03 01:56:20;;;;;;;3.80;1.40;;;;;;;4.54;74.94;101596.00;4978420;28;20753;-72
2023/04/03 01:58:46;;;;;;;2.87;1.40;;;;;;;4.65;73.55;101598.41;4973242;28;20670;-71
2023/04/03 02:01:12;;;;;;;2.90;1.20;;;;;;;4.72;73.34;101597.00;4967855;28;20642;-70
2023/04/03 02:03:39;;;;;;;2.63;1.20;;;;;;;4.76;72.48;101590.22;4964083;28;20305;-72
2023/04/03 02:06:06;;;;;;;3.33;1.60;;;;;;;4.77;72.47;101595.53;4965723;28;20216;-71
2023/04/03 02:08:32;;;;;;;2.57;1.40;;;;;;;4.75;72.76;101591.03;4964532;28;20209;-71
2023/04/03 02:10:59;;;;;;;2.97;1.27;;;;;;;4.72;73.14;101589.13;4960904;28;20664;-70
2023/04/03 02:13:25;;;;;;;2.53;1.20;;;;;;;4.64;73.29;101582.56;4962083;28;20242;-72
2023/04/03 02:15:51;;;;;;;4.63;1.30;;;;;;;4.69;73.19;101583.72;4966009;28;20720;-72
2023/04/03 02:18:18;;;;;;;3.33;1.70;;;;;;;4.77;73.04;101587.66;4988694;28;20202;-71
2023/04/03 02:20:46;;;;;;;2.20;1.47;;;;;;;4.80;73.39;101587.84;4968712;28;20218;-72
2023/04/03 02:23:12;;;;;;;4.00;1.20;;;;;;;4.77;73.40;101587.66;4963477;28;20261;-71
2023/04/03 02:25:39;;;;;;;1.97;1.13;;;;;;;4.75;73.52;101585.78;4965248;28;20659;-70
2023/04/03 02:28:06;;;;;;;3.83;1.40;;;;;;;4.67;74.09;101582.75;4966295;28;20256;-71
2023/04/03 02:30:32;;;;;;;1.97;1.20;;;;;;;4.62;75.15;101577.22;4961110;28;20205;-71
2023/04/03 02:32:58;;;;;;;3.20;1.60;;;;;;;4.63;75.44;101579.03;4968235;28;20236;-71
2023/04/03 02:35:25;;;;;;;3.47;1.50;;;;;;;4.57;75.56;101569.94;4966465;28;20194;-71
2023/04/03 02:37:51;;;;;;;3.73;1.33;;;;;;;4.58;75.13;101574.34;4970252;28;20236;-71
2023/04/03 02:40:17;;;;;;;6.70;1.40;;;;;;;4.59;75.39;101566.56;4954766;28;20201;-71
2023/04/03 02:42:44;;;;;;;2.07;1.20;;;;;;;4.51;75.48;101565.25;4970016;28;20214;-71
2023/04/03 02:45:11;;;;;;;1.90;1.10;;;;;;;4.59;75.35;101565.66;4968955;28;20619;-72
2023/04/03 02:47:37;;;;;;;5.10;1.60;;;;;;;4.63;75.40;101580.75;4968602;28;20197;-72
2023/04/03 02:50:04;;;;;;;2.00;1.20;;;;;;;4.69;75.04;101579.38;4970253;28;20218;-72
2023/04/03 02:52:31;;;;;;;4.20;1.50;;;;;;;4.70;75.25;101588.16;4971376;28;20201;-72
2023/04/03 02:54:58;;;;;;;4.53;1.43;;;;;;;4.70;75.40;101582.91;4968335;28;20769;-70
2023/04/03 02:57:24;;;;;;;3.57;1.50;;;;;;;4.75;75.69;101583.16;4968117;28;20217;-71
2023/04/03 02:59:50;;;;;;;3.13;1.60;;;;;;;4.72;75.89;101590.03;4969829;28;20248;-71
2023/04/03 03:02:17;;;;;;;3.07;1.37;;;;;;;4.68;76.37;101585.44;4965121;28;20577;-72
2023/04/03 03:04:43;;;;;;;3.57;1.60;;;;;;;4.65;76.93;101584.38;4965043;28;20287;-71
2023/04/03 03:07:10;;;;;;;3.70;1.43;;;;;;;4.59;77.42;101584.03;4968111;28;20201;-72
2023/04/03 03:09:36;;;;;;;3.80;1.50;;;;;;;4.58;77.12;101588.38;4969520;28;20201;-72
2023/04/03 03:12:03;;;;;;;3.83;1.40;;;;;;;4.56;77.88;101589.09;4964174;28;20229;-71
2023/04/03 03:14:30;;;;;;;3.97;1.50;;;;;;;4.54;78.01;101583.78;4962319;28;20228;-72
2023/04/03 03:16:56;;;;;;;3.20;1.33;;;;;;;4.50;78.07;101587.03;4966100;28;20229;-71
2023/04/03 03:19:22;;;;;;;2.87;1.50;;;;;;;4.51;77.95;101587.94;4966769;28;20209;-71
2023/04/03 03:21:50;;;;;;;2.13;1.20;;;;;;;4.56;78.17;101591.72;4967942;28;20235;-71
2023/04/03 03:24:16;;;;;;;6.10;1.67;;;;;;;4.56;78.21;101586.47;4961564;28;20267;-71
2023/04/03 03:26:42;;;;;;;3.37;1.60;;;;;;;4.53;78.36;101597.72;4961297;28;20260;-71
2023/04/03 03:29:09;;;;;;;4.00;1.53;;;;;;;4.48;78.96;101598.28;4977726;28;20643;-71
2023/04/03 03:31:35;;;;;;;2.43;1.60;;;;;;;4.45;78.60;101592.84;4963720;28;20204;-71
2023/04/03 03:34:02;;;;;;;4.37;1.57;;;;;;;4.44;79.06;101604.16;4963278;28;20221;-72
2023/04/03 03:36:28;;;;;;;2.63;1.33;;;;;;;4.37;79.08;101595.91;4966080;28;20600;-72
2023/04/03 03:38:55;;;;;;;2.97;1.30;;;;;;;4.34;79.43;101594.84;4977107;28;20198;-71
2023/04/03 03:41:21;;;;;;;3.27;1.67;;;;;;;4.39;79.13;101601.25;4957676;28;20260;-71
2023/04/03 03:43:48;;;;;;;2.93;1.63;;;;;;;4.33;79.27;101593.94;4980795;28;20221;-71
2023/04/03 03:46:14;;;;;;;1.87;1.30;;;;;;;4.36;78.85;101599.34;4966027;28;20642;-71
2023/04/03 03:48:40;;;;;;;3.57;1.83;;;;;;;4.34;78.65;101606.22;4960621;28;20659;-71
2023/04/03 03:51:07;;;;;;;2.77;1.67;;;;;;;4.36;77.63;101595.81;4960953;28;20221;-68
2023/04/03 03:53:34;;;;;;;3.43;1.43;;;;;;;4.30;77.67;101599.00;4972455;28;20580;-71
2023/04/03 03:56:00;;;;;;;2.00;1.30;;;;;;;4.22;77.58;101599.38;4962914;28;20222;-70
2023/04/03 03:58:27;;;;;;;1.97;1.27;;;;;;;4.08;78.38;101595.97;4962662;28;20663;-71
2023/04/03 04:00:53;;;;;;;2.03;1.20;;;;;;;3.92;79.28;101594.13;4965444;28;20289;-71
2023/04/03 04:03:20;;;;;;;3.73;1.50;;;;;;;3.84;79.52;101591.88;4976530;22;20613;-74
2023/04/03 04:05:47;;;;;;;3.30;1.50;;;;;;;3.63;80.66;101596.75;4991456;28;20203;-76
2023/04/03 04:08:13;;;;;;;2.50;1.50;;;;;;;3.64;81.00;101604.69;4992377;28;20229;-75
2023/04/03 04:10:40;;;;;;;2.50;1.67;;;;;;;3.61;81.41;101601.91;4997862;28;20577;-75
2023/04/03 04:13:06;;;;;;;4.63;1.40;;;;;;;3.65;81.09;101590.78;4994866;28;20207;-72
2023/04/03 04:15:32;;;;;;;4.37;1.50;;;;;;;3.64;81.02;101595.94;4982095;28;20202;-75
2023/04/03 04:18:01;;;;;;;2.73;1.47;;;;;;;3.65;81.15;101597.75;4982513;28;20222;-75
2023/04/03 04:20:28;;;;;;;3.47;1.30;;;;;;;3.68;80.13;101605.78;4994287;28;20200;-72
2023/04/03 04:22:55;;;;;;;2.50;1.60;;;;;;;3.63;79.44;101602.00;4993410;28;20753;-74
2023/04/03 04:25:21;;;;;;;2.33;1.30;;;;;;;3.61;80.13;101606.25;4995278;28;20257;-75
2023/04/03 04:27:47;;;;;;;4.00;1.43;;;;;;;3.61;79.97;101608.84;4983288;28;20203;-75
2023/04/03 04:30:14;;;;;;;2.10;1.33;;;;;;;3.65;78.95;101605.59;4986690;28;20206;-75
2023/04/03 04:32:40;;;;;;;3.13;1.10;;;;;;;3.60;78.53;101618.44;4985021;28;20210;-75
2023/04/03 04:35:07;;;;;;;1.83;1.20;;;;;;;3.54;78.43;101610.16;4992538;28;20257;-75
2023/04/03 04:37:34;;;;;;;3.63;1.20;;;;;;;3.43;78.00;101609.53;5000611;28;20703;-75
2023/04/03 04:40:00;;;;;;;5.67;1.40;;;;;;;3.34;78.52;101611.59;4984378;28;20206;-74
2023/04/03 04:42:26;;;;;;;3.40;1.57;;;;;;;3.18;78.99;101613.13;4987201;28;20700;-75
2023/04/03 04:44:53;;;;;;;1.80;1.07;;;;;;;3.11;78.67;101614.47;4983619;28;20218;-75
2023/04/03 04:47:19;;;;;;;3.40;1.37;;;;;;;3.02;78.21;101611.28;4996731;28;20698;-76
2023/04/03 04:49:47;;;;;;;3.17;1.30;;;;;;;2.97;78.18;101620.56;4993062;28;20470;-75
2023/04/03 04:52:13;;;;;;;3.27;1.40;;;;;;;2.76;79.35;101623.59;4997889;28;20197;-75
2023/04/03 04:54:40;;;;;;;4.80;1.20;;;;;;;2.65;79.01;101616.78;4998581;28;20258;-75
2023/04/03 04:57:06;;;;;;;6.13;1.57;;;;;;;2.69;79.68;101626.63;4988550;28;20228;-75
2023/04/03 04:59:33;;;;;;;8.00;1.53;;;;;;;2.55;80.00;101637.91;4993693;28;20225;-74
2023/04/03 05:01:59;;;;;;;6.00;1.60;;;;;;;2.47;80.65;101628.66;4988852;28;20215;-75
2023/04/03 05:04:26;;;;;;;2.67;1.40;;;;;;;2.44;80.53;101632.00;4992182;28;20228;-76
2023/04/03 05:06:52;;;;;;;3.50;1.47;;;;;;;2.33;81.30;101624.22;4995949;28;20361;-78
2023/04/03 05:09:19;;;;;;;3.93;1.80;;;;;;;2.27;81.78;101635.19;4990811;28;20655;-79
2023/04/03 05:11:46;;;;;;;1.90;1.30;;;;;;;2.19;82.18;101642.50;4990562;28;20203;-77
2023/04/03 05:14:12;;;;;;;3.97;1.43;;;;;;;2.19;82.63;101637.28;4986493;28;20546;-76
2023/04/03 05:16:39;;;;;;;1.77;1.37;;;;;;;2.21;82.10;101640.00;4984612;28;20244;-78
2023/04/03 05:19:05;;;;;;;5.30;1.70;;;;;;;2.22;81.94;101649.66;4986333;28;20193;-80
2023/04/03 05:21:32;;;;;;;2.13;1.40;;;;;;;2.16;81.89;101647.53;4988927;28;20196;-76
2023/04/03 05:24:02;;;;;;;3.47;1.37;;;;;;;2.18;82.29;101639.81;4990027;28;20456;-77
2023/04/03 05:26:30;;;;;;;3.10;1.30;;;;;;;2.20;82.09;101646.94;4988620;28;20193;-76
2023/04/03 05:28:57;;;;;;;5.43;1.60;;;;;;;2.20;82.31;101649.56;4984504;28;20205;-75
2023/04/03 05:31:23;;;;;;;3.43;1.43;;;;;;;2.28;81.74;101655.28;4986793;28;20295;-76
2023/04/03 05:33:50;;;;;;;6.77;1.47;;;;;;;2.33;81.62;101647.75;4986654;28;20679;-78
2023/04/03 05:36:16;;;;;;;2.80;1.33;;;;;;;2.30;81.32;101650.16;4988413;28;20616;-76
2023/04/03 05:38:43;;;;;;;4.23;1.60;;;;;;;2.37;81.26;101652.38;4989494;28;20779;-74
2023/04/03 05:41:11;;;;;;;4.13;1.40;;;;;;;2.50;80.38;101655.00;4994421;28;20632;-77
2023/04/03 05:43:38;;;;;;;2.57;1.60;;;;;;;2.73;80.32;101654.78;4984743;28;20221;-76
2023/04/03 05:46:15;;;;;;;3.07;1.37;;;;;;;3.05;78.45;101651.63;4992607;28;20212;-76
2023/04/03 05:48:43;;;;;;;2.40;1.37;;;;;;;3.45;76.43;101660.28;4996914;28;20550;-76
2023/04/03 05:51:18;;;;;;;3.00;1.63;;;;;;;3.44;76.45;101663.69;4991239;28;20639;-73
2023/04/03 05:53:47;;;;;;;5.10;1.40;;;;;;;3.30;76.53;101661.94;4997664;28;20238;-75
2023/04/03 05:56:13;;;;;;;6.53;1.80;;;;;;;3.30;76.37;101672.41;4995679;28;20205;-73
2023/04/03 05:58:40;;;;;;;3.77;1.80;;;;;;;3.33;76.10;101666.47;4985511;28;20196;-73
2023/04/03 06:01:06;;;;;;;2.60;1.70;;;;;;;3.42;75.41;101667.94;5001643;28;20197;-75
2023/04/03 06:03:33;;;;;;;4.07;1.70;;;;;;;3.49;74.52;101666.59;4981640;28;20232;-74
2023/04/03 06:06:03;;;;;;;5.37;2.10;;;;;;;3.63;74.36;101673.63;5003810;28;20236;-73
2023/04/03 06:08:30;;;;;;;3.33;1.60;;;;;;;3.68;73.35;101679.13;5006823;28;20191;-71
2023/04/03 06:10:56;;;;;;;4.73;1.93;;;;;;;3.83;72.88;101679.16;4999504;28;20222;-70
2023/04/03 06:13:23;;;;;;;4.20;1.60;;;;;;;3.81;72.66;101684.31;5009178;28;20218;-70
2023/04/03 06:15:50;;;;;;;1.97;1.37;;;;;;;3.88;72.03;101686.47;5002917;28;20216;-70
2023/04/03 06:18:16;;;;;;;3.23;1.70;;;;;;;3.88;71.49;101678.63;4998922;28;20219;-71
2023/04/03 06:20:42;;;;;;;7.07;1.47;;;;;;;3.93;71.24;101685.03;5001583;28;20201;-71
2023/04/03 06:23:08;;;;;;;3.77;1.80;;;;;;;3.99;71.34;101681.88;5003771;28;20230;-72
2023/04/03 06:25:35;;;;;;;3.67;1.50;;;;;;;4.13;70.82;101695.84;4999819;28;20203;-72
2023/04/03 06:28:02;;;;;;;7.53;2.10;;;;;;;4.40;71.32;101687.91;4996073;28;20799;-71
2023/04/03 06:30:28;;;;;;;3.53;1.37;;;;;;;5.10;67.52;101692.75;4995338;28;20618;-71
2023/04/03 06:32:55;;;;;;;2.93;1.53;;;;;;;5.13;66.44;101693.81;4992556;28;20211;-71
2023/04/03 06:35:23;;;;;;;6.23;1.70;;;;;;;5.51;64.71;101702.94;4999008;28;20703;-74
2023/04/03 06:37:50;;;;;;;4.50;1.30;;;;;;;5.49;64.26;101684.44;4991632;28;20225;-73
2023/04/03 06:40:21;;;;;;;4.23;1.60;;;;;;;5.92;62.70;101699.94;4986942;28;20207;-73
2023/04/03 06:42:48;;;;;;;3.73;1.37;;;;;;;5.69;62.95;101708.28;4990759;28;20208;-73
2023/04/03 06:45:15;;;;;;;3.63;1.50;;;;;;;5.49;63.15;101702.84;4985750;28;20285;-72
2023/04/03 06:47:41;;;;;;;3.17;1.30;;;;;;;5.25;64.28;101706.75;4981689;28;20193;-75
2023/04/03 06:50:11;;;;;;;2.93;1.30;;;;;;;5.36;64.01;101703.00;4981671;28;20210;-75
2023/04/03 06:52:39;;;;;;;4.00;1.40;;;;;;;5.44;63.25;101704.31;4987927;28;20243;-73
2023/04/03 06:55:06;;;;;;;2.87;1.50;;;;;;;5.12;63.56;101718.28;4988992;28;20602;-74
2023/04/03 06:57:32;;;;;;;3.93;1.23;;;;;;;4.99;64.39;101721.94;4984844;28;20320;-73
2023/04/03 06:59:59;;;;;;;4.40;1.40;;;;;;;4.94;64.07;101720.78;4989794;28;20196;-73
2023/04/03 07:02:26;;;;;;;3.33;1.40;;;;;;;4.89;63.63;101724.88;4983559;28;20203;-72
2023/04/03 07:04:52;;;;;;;3.27;1.43;;;;;;;5.08;63.22;101724.19;4986922;28;20293;-73
2023/04/03 07:07:19;;;;;;;3.23;1.20;;;;;;;5.08;62.52;101724.19;4985522;28;20246;-72
2023/04/03 07:09:47;;;;;;;1.87;1.40;;;;;;;5.63;62.15;101719.38;4987937;28;20197;-70
2023/04/03 07:12:14;;;;;;;2.33;1.40;;;;;;;6.58;59.68;101713.06;4985886;28;20205;-70
2023/04/03 07:14:41;;;;;;;5.20;1.40;;;;;;;6.64;58.54;101719.44;4980140;28;20234;-71
2023/04/03 07:17:07;;;;;;;4.20;1.27;;;;;;;7.29;57.40;101704.25;4979620;28;20225;-70
2023/04/03 07:19:34;;;;;;;3.20;1.50;;;;;;;7.18;55.88;101727.44;4975155;28;20207;-71
2023/04/03 07:22:00;;;;;;;2.50;1.10;;;;;;;6.89;56.26;101718.13;4987064;28;20208;-71
2023/04/03 07:24:27;;;;;;;6.87;1.53;;;;;;;7.02;56.07;101734.53;4985675;28;20307;-72
2023/04/03 07:26:53;;;;;;;3.10;1.30;;;;;;;7.21;55.47;101727.63;4984030;28;20200;-71
2023/04/03 07:29:21;;;;;;;5.80;1.50;;;;;;;7.38;56.02;101733.69;4979112;28;20268;-74
2023/04/03 07:31:47;;;;;;;3.70;1.60;;;;;;;6.40;57.07;101727.88;4981376;28;20197;-72
2023/04/03 07:34:14;;;;;;;6.47;1.47;;;;;;;6.70;56.76;101735.53;4986140;28;20316;-71
2023/04/03 07:36:41;;;;;;;4.30;1.47;;;;;;;6.49;57.81;101735.38;4988087;28;20247;-72
2023/04/03 07:39:07;;;;;;;2.63;1.50;;;;;;;6.22;58.00;101740.09;4988071;28;20205;-71
2023/04/03 07:41:34;;;;;;;4.30;1.70;;;;;;;5.81;59.30;101748.38;4982476;28;20201;-71
2023/04/03 07:44:00;;;;;;;3.60;1.43;;;;;;;5.79;58.93;101745.66;4987895;28;20235;-69
2023/04/03 07:46:27;;;;;;;4.70;1.70;;;;;;;5.81;59.31;101748.38;4984953;28;20200;-70
2023/04/03 07:48:54;;;;;;;6.37;1.37;;;;;;;5.70;59.11;101733.75;4980950;28;20625;-71
2023/04/03 07:51:24;;;;;;;5.17;1.77;;;;;;;5.81;59.44;101745.75;4987913;28;20288;-70
2023/04/03 07:53:50;;;;;;;5.87;1.50;;;;;;;5.87;59.35;101746.06;4978982;28;20639;-68
2023/04/03 07:56:17;;;;;;;2.17;1.40;;;;;;;5.77;59.07;101746.41;4983484;28;20263;-71
2023/04/03 07:58:43;;;;;;;4.50;1.30;;;;;;;5.81;59.26;101759.78;4983547;28;20329;-71
2023/04/03 08:01:10;;;;;;;4.47;1.67;;;;;;;5.72;59.28;101758.41;4984837;28;20204;-70
2023/04/03 08:03:37;;;;;;;4.13;1.53;;;;;;;5.69;59.35;101743.38;4981716;28;20359;-71
2023/04/03 08:06:06;;;;;;;2.60;1.20;;;;;;;5.64;59.13;101772.03;4978970;28;20228;-71
2023/04/03 08:08:41;;;;;;;3.27;1.30;;;;;;;5.49;59.48;101765.00;4983447;28;20197;-72
2023/04/03 08:11:08;;;;;;;3.70;1.50;;;;;;;5.57;59.01;101758.44;4987217;28;20201;-72
2023/04/03 08:13:35;;;;;;;5.73;1.47;;;;;;;5.52;58.74;101773.94;4987030;28;20217;-74
2023/04/03 08:16:15;;;;;;;1.67;1.30;;;;;;;5.42;59.80;101763.75;4978737;28;20232;-72
2023/04/03 08:18:42;;;;;;;2.50;1.50;;;;;;;5.49;60.58;101758.03;4979604;28;20307;-70
2023/04/03 08:21:10;;;;;;;3.83;1.43;;;;;;;5.53;59.40;101761.72;4980736;28;20552;-71
2023/04/03 08:23:37;;;;;;;3.10;1.67;;;;;;;5.43;59.96;101752.44;4984694;28;20240;-73
2023/04/03 08:26:13;;;;;;;3.77;1.67;;;;;;;5.52;59.41;101758.19;4987757;28;20204;-71
2023/04/03 08:28:40;;;;;;;3.50;1.70;;;;;;;5.71;60.77;101760.13;4984513;28;20243;-73
2023/04/03 08:31:10;;;;;;;1.77;1.50;;;;;;;5.79;59.08;101766.69;4974117;28;20201;-70
2023/04/03 08:33:38;;;;;;;1.63;1.50;;;;;;;5.96;59.60;101759.75;4987501;28;20217;-71
2023/04/03 08:36:07;;;;;;;2.30;1.47;;;;;;;6.13;58.81;101750.16;4985815;28;20681;-72
2023/04/03 08:38:36;;;;;;;5.87;1.60;;;;;;;6.22;58.04;101748.91;4987423;28;20219;-71
2023/04/03 08:41:20;;;;;;;6.13;1.53;;;;;;;6.32;56.44;101757.25;4989807;28;20583;-71
2023/04/03 08:44:01;;;;;;;2.43;1.60;;;;;;;6.25;55.34;101749.06;4983238;28;20736;-71
2023/04/03 08:46:43;;;;;;;3.33;1.57;;;;;;;6.34;56.34;101756.50;4986860;28;20236;-72
2023/04/03 08:49:21;;;;;;;6.40;1.87;;;;;;;6.41;55.67;101766.56;4989351;28;20665;-71
2023/04/03 08:51:49;;;;;;;3.17;1.70;;;;;;;6.35;57.09;101758.31;4982934;28;20200;-70
2023/04/03 08:54:29;;;;;;;4.07;1.67;;;;;;;6.18;57.24;101773.22;4989443;28;20251;-70
2023/04/03 08:56:57;;;;;;;8.30;2.07;;;;;;;6.13;58.73;101769.47;4984334;28;20259;-70
2023/04/03 08:59:29;;;;;;;3.77;1.70;;;;;;;6.09;57.35;101778.00;4985048;28;20218;-68
2023/04/03 09:01:58;;;;;;;6.17;1.73;;;;;;;6.22;56.79;101766.41;4987032;28;20212;-70
2023/04/03 09:04:27;;;;;;;3.03;1.63;;;;;;;6.23;55.48;101763.84;4985391;28;20259;-70
2023/04/03 09:07:00;;;;;;;5.60;1.67;;;;;;;6.38;55.41;101771.63;4985262;28;20205;-70
2023/04/03 09:09:40;;;;;;;2.77;1.50;;;;;;;6.36;55.37;101764.50;4985172;28;21677;-71
2023/04/03 09:12:26;;;;;;;6.47;1.57;;;;;;;6.51;55.13;101754.78;4986556;28;20625;-70
2023/04/03 09:15:00;;;;;;;6.20;1.80;;;;;;;6.93;54.32;101760.41;4988510;28;20724;-71
2023/04/03 09:17:40;;;;;;;4.70;1.60;;;;;;;6.83;50.23;101770.50;4985709;28;20261;-71
2023/04/03 09:20:38;;;;;;;2.33;1.27;;;;;;;6.57;51.00;101790.22;4984492;28;20200;-69
2023/04/03 09:23:30;;;;;;;2.97;1.40;;;;;;;6.70;51.55;101753.97;4988313;28;20255;-73
2023/04/03 09:26:04;;;;;;;4.20;1.20;;;;;;;6.67;49.57;101775.78;4983005;28;20207;-71
2023/04/03 09:28:36;;;;;;;3.07;1.60;;;;;;;6.60;50.14;101766.69;4985515;28;20240;-71
2023/04/03 09:31:20;;;;;;;1.83;1.50;;;;;;;6.67;50.91;101782.78;4988845;28;20202;-70
2023/04/03 09:33:51;;;;;;;3.77;1.73;;;;;;;6.57;52.01;101768.25;4984515;28;20290;-71
2023/04/03 09:36:45;;;;;;;2.37;1.53;;;;;;;6.71;51.91;101758.41;4986327;28;20227;-72
2023/04/03 09:39:15;;;;;;;2.87;1.50;;;;;;;6.73;51.55;101762.03;4989463;28;20220;-73
2023/04/03 09:41:56;;;;;;;3.87;1.70;;;;;;;6.97;52.60;101765.00;4987235;28;20209;-71
2023/04/03 09:44:25;;;;;;;3.70;1.60;;;;;;;7.49;50.57;101739.44;4988789;28;20611;-71
2023/04/03 09:46:52;;;;;;;4.73;1.60;;;;;;;7.90;50.37;101757.19;4988166;28;20633;-71
2023/04/03 09:49:19;;;;;;;5.00;1.73;;;;;;;8.28;48.13;101750.13;4988953;28;20375;-71
2023/04/03 09:51:46;;;;;;;4.37;1.70;;;;;;;8.53;47.05;101745.13;4989467;28;20201;-70
2023/04/03 09:54:37;;;;;;;7.00;1.70;;;;;;;8.50;46.60;101760.84;4988434;28;20257;-71
2023/04/03 09:57:11;;;;;;;4.63;1.60;;;;;;;8.52;46.46;101755.63;4988253;28;20236;-73
2023/04/03 09:59:44;;;;;;;3.53;1.80;;;;;;;7.91;48.58;101769.56;4988347;28;20224;-72
2023/04/03 10:02:27;;;;;;;8.93;2.83;;;;;;;8.06;47.79;101769.38;4984720;28;20199;-72
2023/04/03 10:04:54;;;;;;;5.50;2.13;;;;;;;7.86;49.52;101764.06;4990788;28;20272;-72
2023/04/03 10:07:37;;;;;;;4.77;1.90;;;;;;;7.32;50.94;101786.09;4989809;28;20274;-71
2023/04/03 10:10:22;;;;;;;5.77;1.83;;;;;;;7.13;51.71;101767.56;4985491;28;20215;-70
2023/04/03 10:12:49;;;;;;;3.23;1.80;;;;;;;7.69;50.90;101761.50;4982133;28;20482;-72
2023/04/03 10:15:18;;;;;;;8.03;2.60;;;;;;;7.39;52.05;101780.28;4981881;28;20532;-71
2023/04/03 10:17:56;;;;;;;3.50;2.33;;;;;;;6.65;53.12;101779.16;4987001;28;20474;-69
2023/04/03 10:20:46;;;;;;;4.23;1.90;;;;;;;6.51;54.38;101771.47;4987356;28;20606;-71
2023/04/03 10:23:25;;;;;;;3.70;1.90;;;;;;;6.65;54.40;101780.06;4986029;28;20260;-72
2023/04/03 10:26:29;;;;;;;2.83;1.83;;;;;;;6.82;52.90;101779.22;4986247;28;20212;-70
2023/04/03 10:29:01;;;;;;;4.97;2.10;;;;;;;7.18;51.78;101759.03;4990658;28;20281;-71
2023/04/03 10:31:40;;;;;;;5.17;2.53;;;;;;;7.37;52.10;101765.22;4987301;28;20597;-72
2023/04/03 10:34:13;;;;;;;3.40;1.80;;;;;;;7.53;51.60;101776.56;4987165;28;20283;-72
2023/04/03 10:37:09;;;;;;;3.50;1.90;;;;;;;7.44;53.00;101768.22;4989614;28;20287;-75
2023/04/03 10:39:47;;;;;;;5.43;1.90;;;;;;;7.37;52.46;101757.31;4992002;28;20274;-73
2023/04/03 10:42:27;;;;;;;3.93;1.73;;;;;;;7.02;51.16;101755.59;4987671;28;20203;-72
2023/04/03 10:45:18;;;;;;;4.43;1.97;;;;;;;6.84;51.57;101767.03;4982168;28;20226;-72
2023/04/03 10:48:09;;;;;;;4.10;2.00;;;;;;;6.93;52.36;101744.63;4983478;28;20212;-72
2023/04/03 10:50:51;;;;;;;6.20;2.00;;;;;;;7.00;50.65;101749.34;4989178;28;20261;-70
2023/04/03 10:53:20;;;;;;;4.27;1.70;;;;;;;7.15;51.31;101748.34;4984743;28;20229;-71
2023/04/03 10:56:24;;;;;;;6.50;1.83;;;;;;;7.21;49.86;101739.88;4982068;28;20206;-71
2023/04/03 10:59:17;;;;;;;3.97;1.70;;;;;;;6.95;50.61;101740.31;4967054;28;20706;-71
2023/04/03 11:01:48;;;;;;;5.50;2.20;;;;;;;6.99;50.36;101750.19;4981408;28;20201;-74
2023/04/03 11:04:17;;;;;;;4.70;1.87;;;;;;;6.69;50.84;101742.53;4978251;28;20289;-72
2023/04/03 11:06:53;;;;;;;4.20;1.90;;;;;;;7.00;50.64;101747.63;4982833;28;20205;-73
2023/04/03 11:09:41;;;;;;;2.93;1.83;;;;;;;7.19;50.30;101744.13;4974648;28;20241;-72
2023/04/03 11:12:25;;;;;;;5.30;2.10;;;;;;;7.43;49.66;101737.44;4978742;28;20390;-73
2023/04/03 11:14:54;;;;;;;4.23;1.80;;;;;;;7.30;49.47;101752.59;4975461;28;20226;-72
2023/04/03 11:17:33;;;;;;;3.80;1.93;;;;;;;7.16;48.88;101734.34;4979621;28;20217;-74
2023/04/03 11:20:08;;;;;;;3.87;1.70;;;;;;;7.36;48.94;101743.25;4978032;28;20271;-69
2023/04/03 11:22:43;;;;;;;3.13;1.80;;;;;;;7.21;49.63;101753.06;4982134;28;20586;-72
2023/04/03 11:25:10;;;;;;;4.23;2.20;;;;;;;7.12;50.00;101729.78;4984315;28;20253;-71
2023/04/03 11:27:56;;;;;;;4.87;2.23;;;;;;;7.44;49.55;101719.88;4990516;28;20206;-70
2023/04/03 11:30:43;;;;;;;4.60;2.10;;;;;;;7.58;49.48;101729.34;4987960;28;20270;-71
2023/04/03 11:33:34;;;;;;;4.83;1.90;;;;;;;7.43;49.21;101732.16;4988988;28;20204;-71
2023/04/03 11:36:07;;;;;;;2.90;2.10;;;;;;;7.70;48.48;101724.66;4985913;28;20616;-70
2023/04/03 11:38:57;;;;;;;2.70;2.00;;;;;;;7.84;48.43;101707.72;4979420;28;20226;-70
2023/04/03 11:41:29;;;;;;;3.53;1.90;;;;;;;7.52;47.55;101729.94;4986954;28;20272;-70
2023/04/03 11:44:03;;;;;;;2.47;1.80;;;;;;;7.76;46.91;101700.28;4987493;28;20224;-72
2023/04/03 11:46:53;;;;;;;2.60;2.03;;;;;;;8.14;46.57;101687.09;4988452;28;20695;-70
2023/04/03 11:49:59;;;;;;;3.77;2.20;;;;;;;8.20;46.03;101710.19;4978399;28;20655;-71